EXS8J EGPH-LEMG
Flight info
| Callsign | EXS8J |
|---|---|
| Flight time | 3h 6m |
| Altitude | 37000 |
| Route | GOSAM P600 FENIK L612 NAVSO DCT ADZOP DCT EGTOC DCT NOKIN N862 KARNO DCT ALHUP DCT ABWIV DCT PACSE DCT TONQU DCT SALCO DCT GOPIN DCT DELOG DCT CRISA DCT VULPE |
| Aircraft | A21N/M-SDE2E3FGHIRWXY/LB1 |
Departure
| Time | 2026-04-25 10:06 |
|---|---|
| Airport | Edinburgh Airport (EGPH) |
Arrival
| Time | 2026-04-25 13:13 |
|---|---|
| Airport | Málaga-Costa del Sol Airport (LEMG) |
| Time | Latitude | Longitude | Altitude | Speed | Heading |
|---|---|---|---|---|---|
| 2026-04-25 09:23 | 55.94836 | -3.35804 | 122 ft | 0 kts | 208° |
| 2026-04-25 09:23 | 55.94838 | -3.35802 | 122 ft | 0 kts | 208° |
| 2026-04-25 09:54 | 55.94850 | -3.35791 | 117 ft | 4 kts | 208° |
| 2026-04-25 09:54 | 55.94870 | -3.35771 | 118 ft | 4 kts | 215° |
| 2026-04-25 09:54 | 55.94885 | -3.35739 | 117 ft | 4 kts | 261° |
| 2026-04-25 09:55 | 55.94882 | -3.35695 | 118 ft | 4 kts | 295° |
| 2026-04-25 09:55 | 55.94878 | -3.35682 | 118 ft | 0 kts | 298° |
| 2026-04-25 09:57 | 55.94879 | -3.35683 | 122 ft | 1 kts | 298° |
| 2026-04-25 09:58 | 55.94899 | -3.35749 | 122 ft | 7 kts | 298° |
| 2026-04-25 09:58 | 55.94926 | -3.35833 | 117 ft | 8 kts | 310° |
| 2026-04-25 09:58 | 55.94981 | -3.35855 | 120 ft | 9 kts | 16° |
| 2026-04-25 09:58 | 55.95042 | -3.35846 | 117 ft | 10 kts | 321° |
| 2026-04-25 09:59 | 55.95080 | -3.35949 | 119 ft | 10 kts | 294° |
| 2026-04-25 09:59 | 55.95108 | -3.36074 | 118 ft | 11 kts | 289° |
| 2026-04-25 09:59 | 55.95130 | -3.36186 | 117 ft | 5 kts | 289° |
| 2026-04-25 09:59 | 55.95135 | -3.36256 | 121 ft | 7 kts | 255° |
| 2026-04-25 10:00 | 55.95099 | -3.36383 | 118 ft | 14 kts | 238° |
| 2026-04-25 10:00 | 55.95050 | -3.36528 | 118 ft | 14 kts | 239° |
| 2026-04-25 10:00 | 55.94999 | -3.36680 | 119 ft | 15 kts | 239° |
| 2026-04-25 10:00 | 55.94945 | -3.36838 | 119 ft | 15 kts | 239° |
| 2026-04-25 10:01 | 55.94891 | -3.37002 | 118 ft | 16 kts | 239° |
| 2026-04-25 10:01 | 55.94833 | -3.37171 | 121 ft | 16 kts | 238° |
| 2026-04-25 10:01 | 55.94788 | -3.37303 | 120 ft | 11 kts | 238° |
| 2026-04-25 10:01 | 55.94745 | -3.37429 | 117 ft | 12 kts | 238° |
| 2026-04-25 10:02 | 55.94700 | -3.37562 | 119 ft | 13 kts | 238° |
| 2026-04-25 10:02 | 55.94652 | -3.37702 | 119 ft | 14 kts | 239° |
| 2026-04-25 10:02 | 55.94603 | -3.37849 | 117 ft | 14 kts | 239° |
| 2026-04-25 10:02 | 55.94552 | -3.37999 | 117 ft | 15 kts | 239° |
| 2026-04-25 10:03 | 55.94498 | -3.38157 | 120 ft | 15 kts | 239° |
| 2026-04-25 10:03 | 55.94443 | -3.38321 | 117 ft | 16 kts | 239° |
| 2026-04-25 10:03 | 55.94386 | -3.38489 | 119 ft | 16 kts | 239° |
| 2026-04-25 10:03 | 55.94333 | -3.38646 | 119 ft | 10 kts | 239° |
| 2026-04-25 10:04 | 55.94294 | -3.38761 | 121 ft | 11 kts | 239° |
| 2026-04-25 10:04 | 55.94303 | -3.38884 | 120 ft | 12 kts | 321° |
| 2026-04-25 10:04 | 55.94367 | -3.38957 | 118 ft | 7 kts | 328° |
| 2026-04-25 10:04 | 55.94409 | -3.38982 | 115 ft | 6 kts | 40° |
| 2026-04-25 10:05 | 55.94428 | -3.38937 | 119 ft | 0 kts | 51° |
| 2026-04-25 10:05 | 55.94430 | -3.38933 | 119 ft | 4 kts | 51° |
| 2026-04-25 10:05 | 55.94504 | -3.38724 | 118 ft | 51 kts | 59° |
| 2026-04-25 10:05 | 55.94799 | -3.37823 | 119 ft | 114 kts | 57° |
| 2026-04-25 10:06 | 55.95306 | -3.36346 | 159 ft | 156 kts | 59° |
| 2026-04-25 10:06 | 55.95884 | -3.34659 | 595 ft | 162 kts | 59° |
| 2026-04-25 10:06 | 55.96549 | -3.33042 | 1190 ft | 162 kts | 40° |
| 2026-04-25 10:06 | 55.97604 | -3.32312 | 1746 ft | 170 kts | 19° |
| 2026-04-25 10:07 | 55.98677 | -3.31026 | 1825 ft | 203 kts | 51° |
| 2026-04-25 10:07 | 55.99600 | -3.28990 | 2070 ft | 228 kts | 47° |
| 2026-04-25 10:07 | 56.00992 | -3.27416 | 2425 ft | 248 kts | 15° |
| 2026-04-25 10:07 | 56.02718 | -3.27393 | 3097 ft | 254 kts | 345° |
| 2026-04-25 10:08 | 56.04249 | -3.28972 | 3843 ft | 260 kts | 314° |
| 2026-04-25 10:08 | 56.05138 | -3.31765 | 4603 ft | 263 kts | 284° |
| 2026-04-25 10:08 | 56.05131 | -3.35031 | 5316 ft | 267 kts | 255° |
| 2026-04-25 10:08 | 56.04212 | -3.37896 | 6036 ft | 271 kts | 225° |
| 2026-04-25 10:09 | 56.02705 | -3.39946 | 6791 ft | 273 kts | 220° |
| 2026-04-25 10:09 | 56.01559 | -3.42585 | 7464 ft | 271 kts | 251° |
| 2026-04-25 10:09 | 56.01100 | -3.45807 | 8148 ft | 273 kts | 261° |
| 2026-04-25 10:09 | 56.00755 | -3.49158 | 8828 ft | 276 kts | 261° |
| 2026-04-25 10:10 | 56.00373 | -3.52540 | 9536 ft | 280 kts | 259° |
| 2026-04-25 10:10 | 55.99947 | -3.55963 | 10235 ft | 283 kts | 259° |
| 2026-04-25 10:10 | 55.99486 | -3.59450 | 10692 ft | 297 kts | 258° |
| 2026-04-25 10:10 | 55.98982 | -3.63145 | 10969 ft | 316 kts | 258° |
| 2026-04-25 10:11 | 55.98436 | -3.67043 | 11402 ft | 328 kts | 258° |
| 2026-04-25 10:11 | 55.97868 | -3.71005 | 12066 ft | 331 kts | 258° |
| 2026-04-25 10:11 | 55.97297 | -3.74998 | 12784 ft | 333 kts | 258° |
| 2026-04-25 10:11 | 55.96719 | -3.79027 | 13442 ft | 337 kts | 257° |
| 2026-04-25 10:12 | 55.96127 | -3.83100 | 14088 ft | 340 kts | 257° |
| 2026-04-25 10:12 | 55.95532 | -3.87142 | 14689 ft | 343 kts | 257° |
| 2026-04-25 10:12 | 55.94316 | -3.95476 | 15856 ft | 350 kts | 257° |
| 2026-04-25 10:13 | 55.93604 | -3.99650 | 16405 ft | 355 kts | 248° |
| 2026-04-25 10:13 | 55.92344 | -4.03472 | 16944 ft | 361 kts | 232° |
| 2026-04-25 10:13 | 55.90527 | -4.06584 | 17481 ft | 366 kts | 217° |
| 2026-04-25 10:13 | 55.88401 | -4.09114 | 18010 ft | 369 kts | 213° |
| 2026-04-25 10:14 | 55.86220 | -4.11560 | 18548 ft | 372 kts | 213° |
| 2026-04-25 10:14 | 55.84029 | -4.14047 | 19063 ft | 375 kts | 214° |
| 2026-04-25 10:14 | 55.81839 | -4.16576 | 19567 ft | 378 kts | 214° |
| 2026-04-25 10:14 | 55.79630 | -4.19148 | 20056 ft | 380 kts | 214° |
| 2026-04-25 10:15 | 55.77325 | -4.21475 | 20520 ft | 384 kts | 204° |
| 2026-04-25 10:15 | 55.74751 | -4.22844 | 20968 ft | 388 kts | 191° |
| 2026-04-25 10:15 | 55.72071 | -4.23498 | 21413 ft | 391 kts | 187° |
| 2026-04-25 10:15 | 55.69393 | -4.23967 | 21850 ft | 394 kts | 184° |
| 2026-04-25 10:16 | 55.66655 | -4.23726 | 22267 ft | 397 kts | 169° |
| 2026-04-25 10:16 | 55.64042 | -4.22124 | 22683 ft | 400 kts | 153° |
| 2026-04-25 10:16 | 55.61598 | -4.19734 | 23101 ft | 402 kts | 150° |
| 2026-04-25 10:16 | 55.59171 | -4.17236 | 23508 ft | 404 kts | 150° |
| 2026-04-25 10:17 | 55.56725 | -4.14764 | 23909 ft | 407 kts | 151° |
| 2026-04-25 10:17 | 55.54250 | -4.12307 | 24297 ft | 409 kts | 151° |
| 2026-04-25 10:17 | 55.51759 | -4.09854 | 24688 ft | 411 kts | 151° |
| 2026-04-25 10:17 | 55.49249 | -4.07405 | 25057 ft | 413 kts | 152° |
| 2026-04-25 10:18 | 55.46720 | -4.04952 | 25418 ft | 415 kts | 152° |
| 2026-04-25 10:18 | 55.44184 | -4.02491 | 25772 ft | 417 kts | 152° |
| 2026-04-25 10:18 | 55.41671 | -4.00060 | 26110 ft | 419 kts | 152° |
| 2026-04-25 10:18 | 55.39108 | -3.97581 | 26439 ft | 421 kts | 152° |
| 2026-04-25 10:19 | 55.36538 | -3.95100 | 26736 ft | 424 kts | 152° |
| 2026-04-25 10:19 | 55.33942 | -3.92595 | 27037 ft | 426 kts | 152° |
| 2026-04-25 10:19 | 55.31341 | -3.90086 | 27344 ft | 427 kts | 152° |
| 2026-04-25 10:19 | 55.28729 | -3.87574 | 27649 ft | 429 kts | 152° |
| 2026-04-25 10:20 | 55.26099 | -3.85049 | 27939 ft | 431 kts | 152° |
| 2026-04-25 10:20 | 55.23472 | -3.82547 | 28229 ft | 432 kts | 154° |
| 2026-04-25 10:20 | 55.20708 | -3.80476 | 28494 ft | 432 kts | 162° |
| 2026-04-25 10:20 | 55.17850 | -3.78852 | 28757 ft | 433 kts | 164° |
| 2026-04-25 10:21 | 55.14970 | -3.77306 | 29035 ft | 434 kts | 164° |
| 2026-04-25 10:21 | 55.12114 | -3.75772 | 29299 ft | 435 kts | 164° |
| 2026-04-25 10:21 | 55.09225 | -3.74206 | 29559 ft | 436 kts | 164° |
| 2026-04-25 10:21 | 55.06323 | -3.72624 | 29821 ft | 437 kts | 164° |
| 2026-04-25 10:22 | 55.03415 | -3.71040 | 30084 ft | 438 kts | 164° |
| 2026-04-25 10:22 | 55.01450 | -3.69970 | 30258 ft | 439 kts | 164° |
| 2026-04-25 10:22 | 54.97587 | -3.67864 | 30587 ft | 440 kts | 164° |
| 2026-04-25 10:22 | 54.94663 | -3.66272 | 30825 ft | 441 kts | 164° |
| 2026-04-25 10:23 | 54.91721 | -3.64677 | 31060 ft | 443 kts | 164° |
| 2026-04-25 10:23 | 54.88777 | -3.63080 | 31274 ft | 444 kts | 164° |
| 2026-04-25 10:23 | 54.85866 | -3.61504 | 31480 ft | 445 kts | 164° |
| 2026-04-25 10:23 | 54.82910 | -3.59907 | 31684 ft | 446 kts | 164° |
| 2026-04-25 10:24 | 54.79940 | -3.58306 | 31881 ft | 447 kts | 164° |
| 2026-04-25 10:24 | 54.76966 | -3.56707 | 32059 ft | 448 kts | 164° |
| 2026-04-25 10:24 | 54.73983 | -3.55107 | 32226 ft | 449 kts | 164° |
| 2026-04-25 10:24 | 54.70991 | -3.53502 | 32392 ft | 451 kts | 164° |
| 2026-04-25 10:25 | 54.67989 | -3.51892 | 32558 ft | 451 kts | 165° |
| 2026-04-25 10:25 | 54.64994 | -3.50286 | 32703 ft | 452 kts | 165° |
| 2026-04-25 10:25 | 54.62021 | -3.48697 | 32867 ft | 453 kts | 165° |
| 2026-04-25 10:25 | 54.59017 | -3.47092 | 33043 ft | 452 kts | 165° |
| 2026-04-25 10:26 | 54.56011 | -3.45493 | 33218 ft | 451 kts | 165° |
| 2026-04-25 10:26 | 54.53012 | -3.43901 | 33388 ft | 451 kts | 165° |
| 2026-04-25 10:26 | 54.50014 | -3.42312 | 33554 ft | 451 kts | 165° |
| 2026-04-25 10:26 | 54.47014 | -3.40722 | 33711 ft | 450 kts | 165° |
| 2026-04-25 10:27 | 54.44027 | -3.39142 | 33857 ft | 450 kts | 165° |
| 2026-04-25 10:27 | 54.41032 | -3.37558 | 34001 ft | 450 kts | 165° |
| 2026-04-25 10:27 | 54.38042 | -3.35976 | 34124 ft | 449 kts | 165° |
| 2026-04-25 10:27 | 54.35090 | -3.34421 | 34246 ft | 449 kts | 165° |
| 2026-04-25 10:28 | 54.32107 | -3.32854 | 34365 ft | 449 kts | 165° |
| 2026-04-25 10:28 | 54.29118 | -3.31285 | 34482 ft | 449 kts | 165° |
| 2026-04-25 10:28 | 54.26133 | -3.29725 | 34588 ft | 449 kts | 165° |
| 2026-04-25 10:29 | 54.20161 | -3.26596 | 34760 ft | 448 kts | 166° |
| 2026-04-25 10:29 | 54.14044 | -3.24845 | 34887 ft | 446 kts | 176° |
| 2026-04-25 10:30 | 54.07913 | -3.23939 | 35031 ft | 446 kts | 176° |
| 2026-04-25 10:30 | 54.01724 | -3.22995 | 35155 ft | 446 kts | 176° |
| 2026-04-25 10:31 | 53.95613 | -3.21103 | 35303 ft | 447 kts | 169° |
| 2026-04-25 10:31 | 53.89561 | -3.18765 | 35455 ft | 446 kts | 169° |
| 2026-04-25 10:32 | 53.83550 | -3.16481 | 35554 ft | 446 kts | 169° |
| 2026-04-25 10:32 | 53.77499 | -3.14196 | 35638 ft | 446 kts | 169° |
| 2026-04-25 10:33 | 53.71432 | -3.11916 | 35718 ft | 446 kts | 169° |
| 2026-04-25 10:33 | 53.65370 | -3.09643 | 35800 ft | 446 kts | 169° |
| 2026-04-25 10:34 | 53.59307 | -3.07369 | 35865 ft | 447 kts | 169° |
| 2026-04-25 10:34 | 53.53283 | -3.05121 | 35926 ft | 446 kts | 169° |
| 2026-04-25 10:35 | 53.47227 | -3.02871 | 36001 ft | 446 kts | 169° |
| 2026-04-25 10:35 | 53.41157 | -3.00616 | 36058 ft | 446 kts | 169° |
| 2026-04-25 10:36 | 53.35090 | -2.98375 | 36114 ft | 446 kts | 169° |
| 2026-04-25 10:36 | 53.29021 | -2.96133 | 36171 ft | 447 kts | 169° |
| 2026-04-25 10:37 | 53.22977 | -2.93909 | 36244 ft | 447 kts | 169° |
| 2026-04-25 10:37 | 53.16906 | -2.91681 | 36317 ft | 447 kts | 169° |
| 2026-04-25 10:38 | 53.10822 | -2.89458 | 36363 ft | 447 kts | 169° |
| 2026-04-25 10:38 | 53.04672 | -2.88441 | 36380 ft | 444 kts | 184° |
| 2026-04-25 10:39 | 52.98551 | -2.89007 | 36422 ft | 444 kts | 185° |
| 2026-04-25 10:39 | 52.92388 | -2.89582 | 36472 ft | 444 kts | 185° |
| 2026-04-25 10:40 | 52.86239 | -2.90553 | 36525 ft | 443 kts | 189° |
| 2026-04-25 10:40 | 52.80161 | -2.92014 | 36579 ft | 440 kts | 190° |
| 2026-04-25 10:41 | 52.74109 | -2.93453 | 36602 ft | 438 kts | 190° |
| 2026-04-25 10:41 | 52.68089 | -2.94418 | 36643 ft | 438 kts | 185° |
| 2026-04-25 10:42 | 52.62007 | -2.94900 | 36695 ft | 437 kts | 185° |
| 2026-04-25 10:42 | 52.55934 | -2.95393 | 36739 ft | 437 kts | 185° |
| 2026-04-25 10:43 | 52.49865 | -2.95892 | 36791 ft | 437 kts | 185° |
| 2026-04-25 10:43 | 52.43794 | -2.96393 | 36829 ft | 436 kts | 185° |
| 2026-04-25 10:44 | 52.37775 | -2.96885 | 36873 ft | 436 kts | 185° |
| 2026-04-25 10:44 | 52.31718 | -2.97379 | 36913 ft | 436 kts | 185° |
| 2026-04-25 10:45 | 52.25656 | -2.97872 | 36961 ft | 436 kts | 185° |
| 2026-04-25 10:45 | 52.19602 | -2.98371 | 36990 ft | 436 kts | 185° |
| 2026-04-25 10:46 | 52.13537 | -2.98862 | 37022 ft | 436 kts | 185° |
| 2026-04-25 10:46 | 52.07514 | -2.99346 | 37054 ft | 436 kts | 185° |
| 2026-04-25 10:47 | 52.01453 | -2.99835 | 37075 ft | 436 kts | 185° |
| 2026-04-25 10:47 | 51.95389 | -3.00326 | 37096 ft | 436 kts | 185° |
| 2026-04-25 10:48 | 51.89332 | -3.00812 | 37120 ft | 436 kts | 185° |
| 2026-04-25 10:48 | 51.83351 | -3.01870 | 37136 ft | 435 kts | 189° |
| 2026-04-25 10:49 | 51.77361 | -3.03151 | 37154 ft | 434 kts | 189° |
| 2026-04-25 10:49 | 51.71363 | -3.04408 | 37175 ft | 435 kts | 189° |
| 2026-04-25 10:50 | 51.66380 | -3.05439 | 37179 ft | 435 kts | 189° |
| 2026-04-25 10:50 | 51.60377 | -3.06679 | 37210 ft | 434 kts | 189° |
| 2026-04-25 10:51 | 51.54384 | -3.07917 | 37229 ft | 435 kts | 189° |
| 2026-04-25 10:51 | 51.47400 | -3.09363 | 37227 ft | 435 kts | 189° |
| 2026-04-25 10:52 | 51.42399 | -3.10388 | 37227 ft | 435 kts | 189° |
| 2026-04-25 10:52 | 51.36387 | -3.11625 | 37229 ft | 436 kts | 189° |
| 2026-04-25 10:53 | 51.30370 | -3.12857 | 37227 ft | 437 kts | 189° |
| 2026-04-25 10:53 | 51.24365 | -3.14084 | 37225 ft | 434 kts | 189° |
| 2026-04-25 10:54 | 51.18408 | -3.15302 | 37228 ft | 435 kts | 189° |
| 2026-04-25 10:54 | 51.12402 | -3.16524 | 37229 ft | 436 kts | 189° |
| 2026-04-25 10:55 | 51.06372 | -3.17746 | 37234 ft | 437 kts | 189° |
| 2026-04-25 10:55 | 51.00364 | -3.18959 | 37226 ft | 434 kts | 189° |
| 2026-04-25 10:56 | 50.94363 | -3.20167 | 37227 ft | 435 kts | 189° |
| 2026-04-25 10:56 | 50.88346 | -3.21378 | 37230 ft | 436 kts | 189° |
| 2026-04-25 10:57 | 50.82360 | -3.22584 | 37227 ft | 437 kts | 189° |
| 2026-04-25 10:57 | 50.76352 | -3.23782 | 37228 ft | 434 kts | 189° |
| 2026-04-25 10:58 | 50.70344 | -3.24982 | 37228 ft | 435 kts | 189° |
| 2026-04-25 10:58 | 50.64332 | -3.26180 | 37227 ft | 436 kts | 189° |
| 2026-04-25 10:59 | 50.58340 | -3.27367 | 37228 ft | 436 kts | 189° |
| 2026-04-25 10:59 | 50.52338 | -3.28556 | 37229 ft | 435 kts | 189° |
| 2026-04-25 11:00 | 50.46335 | -3.29746 | 37234 ft | 436 kts | 189° |
| 2026-04-25 11:00 | 50.40309 | -3.30927 | 37231 ft | 437 kts | 189° |
| 2026-04-25 11:01 | 50.34389 | -3.32656 | 37230 ft | 434 kts | 194° |
| 2026-04-25 11:01 | 50.28500 | -3.34673 | 37223 ft | 434 kts | 194° |
| 2026-04-25 11:02 | 50.22594 | -3.36670 | 37219 ft | 435 kts | 194° |
| 2026-04-25 11:02 | 50.16672 | -3.38659 | 37221 ft | 436 kts | 194° |
| 2026-04-25 11:03 | 50.10751 | -3.40643 | 37218 ft | 433 kts | 194° |
| 2026-04-25 11:03 | 50.04890 | -3.42610 | 37218 ft | 435 kts | 194° |
| 2026-04-25 11:04 | 49.98969 | -3.44591 | 37210 ft | 436 kts | 194° |
| 2026-04-25 11:04 | 49.93032 | -3.46572 | 37210 ft | 437 kts | 194° |
| 2026-04-25 11:05 | 49.87104 | -3.48540 | 37208 ft | 434 kts | 194° |
| 2026-04-25 11:05 | 49.81222 | -3.50489 | 37210 ft | 435 kts | 194° |
| 2026-04-25 11:06 | 49.75288 | -3.52443 | 37202 ft | 437 kts | 193° |
| 2026-04-25 11:06 | 49.69212 | -3.53291 | 37200 ft | 438 kts | 184° |
| 2026-04-25 11:07 | 49.63128 | -3.53602 | 37194 ft | 438 kts | 184° |
| 2026-04-25 11:07 | 49.57078 | -3.53944 | 37193 ft | 439 kts | 184° |
| 2026-04-25 11:08 | 49.50963 | -3.54308 | 37194 ft | 440 kts | 184° |
| 2026-04-25 11:08 | 49.44847 | -3.54666 | 37172 ft | 440 kts | 184° |
| 2026-04-25 11:09 | 49.38725 | -3.55020 | 37173 ft | 440 kts | 184° |
| 2026-04-25 11:09 | 49.32648 | -3.55377 | 37178 ft | 440 kts | 184° |
| 2026-04-25 11:10 | 49.26520 | -3.55734 | 37186 ft | 441 kts | 184° |
| 2026-04-25 11:10 | 49.20391 | -3.56089 | 37187 ft | 441 kts | 184° |
| 2026-04-25 11:11 | 49.14265 | -3.56445 | 37186 ft | 441 kts | 184° |
| 2026-04-25 11:11 | 49.08131 | -3.56797 | 37183 ft | 441 kts | 184° |
| 2026-04-25 11:12 | 49.02031 | -3.57149 | 37182 ft | 441 kts | 184° |
| 2026-04-25 11:12 | 48.95898 | -3.57501 | 37175 ft | 442 kts | 184° |
| 2026-04-25 11:13 | 48.89753 | -3.57853 | 37167 ft | 443 kts | 184° |
| 2026-04-25 11:13 | 48.83590 | -3.58206 | 37174 ft | 443 kts | 184° |
| 2026-04-25 11:14 | 48.77469 | -3.58552 | 37171 ft | 443 kts | 184° |
| 2026-04-25 11:14 | 48.71298 | -3.58900 | 37170 ft | 444 kts | 184° |
| 2026-04-25 11:15 | 48.65127 | -3.59252 | 37169 ft | 444 kts | 184° |
| 2026-04-25 11:15 | 48.58942 | -3.59610 | 37167 ft | 445 kts | 184° |
| 2026-04-25 11:16 | 48.49684 | -3.60127 | 37170 ft | 446 kts | 184° |
| 2026-04-25 11:16 | 48.43478 | -3.60475 | 37170 ft | 447 kts | 184° |
| 2026-04-25 11:17 | 48.37263 | -3.60824 | 37166 ft | 447 kts | 184° |
| 2026-04-25 11:17 | 48.31035 | -3.61168 | 37164 ft | 448 kts | 184° |
| 2026-04-25 11:18 | 48.24842 | -3.61517 | 37169 ft | 449 kts | 184° |
| 2026-04-25 11:18 | 48.18597 | -3.61866 | 37168 ft | 450 kts | 184° |
| 2026-04-25 11:19 | 48.12335 | -3.62213 | 37162 ft | 450 kts | 184° |
| 2026-04-25 11:19 | 48.06062 | -3.62558 | 37159 ft | 451 kts | 184° |
| 2026-04-25 11:20 | 47.99832 | -3.62898 | 37160 ft | 451 kts | 184° |
| 2026-04-25 11:20 | 47.93569 | -3.63245 | 37151 ft | 452 kts | 184° |
| 2026-04-25 11:21 | 47.87283 | -3.63592 | 37149 ft | 452 kts | 184° |
| 2026-04-25 11:21 | 47.80996 | -3.63936 | 37149 ft | 452 kts | 184° |
| 2026-04-25 11:22 | 47.75774 | -3.64226 | 37148 ft | 452 kts | 184° |
| 2026-04-25 11:22 | 47.68472 | -3.64624 | 37145 ft | 452 kts | 184° |
| 2026-04-25 11:23 | 47.62196 | -3.64967 | 37149 ft | 451 kts | 184° |
| 2026-04-25 11:23 | 47.55920 | -3.65307 | 37151 ft | 451 kts | 184° |
| 2026-04-25 11:24 | 47.49692 | -3.65641 | 37150 ft | 451 kts | 184° |
| 2026-04-25 11:24 | 47.43427 | -3.65980 | 37149 ft | 450 kts | 184° |
| 2026-04-25 11:25 | 47.37163 | -3.66322 | 37151 ft | 450 kts | 184° |
| 2026-04-25 11:25 | 47.30900 | -3.66659 | 37150 ft | 450 kts | 184° |
| 2026-04-25 11:26 | 47.24647 | -3.66994 | 37150 ft | 450 kts | 184° |
| 2026-04-25 11:26 | 47.18426 | -3.67328 | 37151 ft | 450 kts | 184° |
| 2026-04-25 11:27 | 47.12176 | -3.67660 | 37149 ft | 449 kts | 184° |
| 2026-04-25 11:27 | 47.06984 | -3.67932 | 37160 ft | 449 kts | 184° |
| 2026-04-25 11:28 | 46.99694 | -3.68604 | 37159 ft | 449 kts | 186° |
| 2026-04-25 11:28 | 46.93465 | -3.69349 | 37161 ft | 449 kts | 186° |
| 2026-04-25 11:29 | 46.87283 | -3.70078 | 37161 ft | 449 kts | 186° |
| 2026-04-25 11:29 | 46.81047 | -3.70821 | 37160 ft | 450 kts | 186° |
| 2026-04-25 11:30 | 46.74813 | -3.71554 | 37160 ft | 450 kts | 186° |
| 2026-04-25 11:30 | 46.68617 | -3.72270 | 37159 ft | 450 kts | 186° |
| 2026-04-25 11:31 | 46.62380 | -3.73014 | 37161 ft | 450 kts | 186° |
| 2026-04-25 11:31 | 46.56136 | -3.73757 | 37160 ft | 450 kts | 186° |
| 2026-04-25 11:32 | 46.49886 | -3.74478 | 37162 ft | 451 kts | 186° |
| 2026-04-25 11:32 | 46.43628 | -3.75204 | 37161 ft | 451 kts | 186° |
| 2026-04-25 11:33 | 46.37409 | -3.75925 | 37161 ft | 452 kts | 186° |
| 2026-04-25 11:33 | 46.31132 | -3.76648 | 37167 ft | 452 kts | 186° |
| 2026-04-25 11:34 | 46.24863 | -3.77370 | 37167 ft | 453 kts | 186° |
| 2026-04-25 11:34 | 46.18579 | -3.78093 | 37171 ft | 453 kts | 186° |
| 2026-04-25 11:35 | 46.12332 | -3.78812 | 37175 ft | 453 kts | 186° |
| 2026-04-25 11:35 | 46.06040 | -3.79535 | 37179 ft | 454 kts | 186° |
| 2026-04-25 11:36 | 45.99744 | -3.80255 | 37182 ft | 454 kts | 186° |
| 2026-04-25 11:36 | 45.93449 | -3.80978 | 37185 ft | 454 kts | 186° |
| 2026-04-25 11:37 | 45.87144 | -3.81694 | 37183 ft | 454 kts | 186° |
| 2026-04-25 11:37 | 45.80886 | -3.82402 | 37178 ft | 454 kts | 186° |
| 2026-04-25 11:38 | 45.74588 | -3.83113 | 37185 ft | 454 kts | 186° |
| 2026-04-25 11:38 | 45.68293 | -3.83828 | 37193 ft | 454 kts | 186° |
| 2026-04-25 11:39 | 45.62003 | -3.84537 | 37190 ft | 453 kts | 186° |
| 2026-04-25 11:39 | 45.55752 | -3.85236 | 37182 ft | 453 kts | 186° |
| 2026-04-25 11:40 | 45.49469 | -3.85945 | 37190 ft | 453 kts | 186° |
| 2026-04-25 11:40 | 45.43193 | -3.86649 | 37197 ft | 452 kts | 186° |
| 2026-04-25 11:41 | 45.36925 | -3.87347 | 37199 ft | 452 kts | 186° |
| 2026-04-25 11:41 | 45.30708 | -3.88040 | 37202 ft | 451 kts | 186° |
| 2026-04-25 11:42 | 45.24454 | -3.88737 | 37199 ft | 451 kts | 186° |
| 2026-04-25 11:42 | 45.18200 | -3.89430 | 37199 ft | 450 kts | 186° |
| 2026-04-25 11:43 | 45.11964 | -3.90124 | 37203 ft | 449 kts | 186° |
| 2026-04-25 11:43 | 45.05735 | -3.90813 | 37207 ft | 449 kts | 186° |
| 2026-04-25 11:44 | 44.99547 | -3.91489 | 37208 ft | 448 kts | 186° |
| 2026-04-25 11:44 | 44.93334 | -3.92173 | 37209 ft | 447 kts | 186° |
| 2026-04-25 11:45 | 44.87133 | -3.92854 | 37211 ft | 447 kts | 186° |
| 2026-04-25 11:45 | 44.80943 | -3.93531 | 37211 ft | 446 kts | 186° |
| 2026-04-25 11:46 | 44.74765 | -3.94212 | 37212 ft | 445 kts | 186° |
| 2026-04-25 11:46 | 44.68638 | -3.94880 | 37221 ft | 444 kts | 186° |
| 2026-04-25 11:47 | 44.62478 | -3.95548 | 37219 ft | 444 kts | 186° |
| 2026-04-25 11:47 | 44.56315 | -3.96218 | 37220 ft | 444 kts | 186° |
| 2026-04-25 11:48 | 44.50161 | -3.96886 | 37221 ft | 444 kts | 186° |
| 2026-04-25 11:48 | 44.43998 | -3.97554 | 37218 ft | 444 kts | 186° |
| 2026-04-25 11:49 | 44.37889 | -3.98211 | 37221 ft | 444 kts | 186° |
| 2026-04-25 11:49 | 44.31727 | -3.98873 | 37220 ft | 444 kts | 186° |
| 2026-04-25 11:50 | 44.25575 | -3.99579 | 37218 ft | 444 kts | 186° |
| 2026-04-25 11:50 | 44.19424 | -4.00288 | 37221 ft | 443 kts | 186° |
| 2026-04-25 11:51 | 44.13311 | -4.00991 | 37226 ft | 444 kts | 186° |
| 2026-04-25 11:51 | 44.07158 | -4.01691 | 37230 ft | 444 kts | 186° |
| 2026-04-25 11:52 | 44.01006 | -4.02390 | 37234 ft | 443 kts | 186° |
| 2026-04-25 11:52 | 43.94860 | -4.03089 | 37228 ft | 444 kts | 186° |
| 2026-04-25 11:53 | 43.88706 | -4.03786 | 37229 ft | 444 kts | 186° |
| 2026-04-25 11:53 | 43.82591 | -4.04479 | 37228 ft | 444 kts | 186° |
| 2026-04-25 11:54 | 43.76438 | -4.05178 | 37231 ft | 443 kts | 186° |
| 2026-04-25 11:55 | 43.67210 | -4.06214 | 37231 ft | 444 kts | 186° |
| 2026-04-25 11:55 | 43.61096 | -4.06897 | 37227 ft | 444 kts | 186° |
| 2026-04-25 11:56 | 43.54941 | -4.07584 | 37234 ft | 444 kts | 186° |
| 2026-04-25 11:56 | 43.48785 | -4.08272 | 37232 ft | 443 kts | 186° |
| 2026-04-25 11:57 | 43.42628 | -4.08961 | 37233 ft | 444 kts | 186° |
| 2026-04-25 11:57 | 43.36472 | -4.09648 | 37228 ft | 444 kts | 186° |
| 2026-04-25 11:58 | 43.30350 | -4.10330 | 37226 ft | 444 kts | 186° |
| 2026-04-25 11:58 | 43.24190 | -4.11015 | 37228 ft | 444 kts | 186° |
| 2026-04-25 11:59 | 43.18020 | -4.11703 | 37224 ft | 444 kts | 186° |
| 2026-04-25 11:59 | 43.11863 | -4.12381 | 37222 ft | 444 kts | 186° |
| 2026-04-25 12:00 | 43.02672 | -4.13390 | 37222 ft | 444 kts | 186° |
| 2026-04-25 12:01 | 42.93441 | -4.14403 | 37219 ft | 443 kts | 186° |
| 2026-04-25 12:01 | 42.87291 | -4.15083 | 37215 ft | 443 kts | 185° |
| 2026-04-25 12:02 | 42.78134 | -4.16081 | 37209 ft | 442 kts | 185° |
| 2026-04-25 12:02 | 42.71998 | -4.16750 | 37210 ft | 441 kts | 185° |
| 2026-04-25 12:03 | 42.65881 | -4.17414 | 37211 ft | 442 kts | 185° |
| 2026-04-25 12:03 | 42.59761 | -4.18079 | 37204 ft | 441 kts | 185° |
| 2026-04-25 12:04 | 42.53656 | -4.18745 | 37201 ft | 440 kts | 185° |
| 2026-04-25 12:04 | 42.47550 | -4.19403 | 37200 ft | 441 kts | 185° |
| 2026-04-25 12:05 | 42.41488 | -4.20057 | 37198 ft | 439 kts | 185° |
| 2026-04-25 12:05 | 42.35395 | -4.20715 | 37200 ft | 439 kts | 185° |
| 2026-04-25 12:06 | 42.29322 | -4.21370 | 37192 ft | 437 kts | 185° |
| 2026-04-25 12:06 | 42.23247 | -4.22023 | 37191 ft | 439 kts | 185° |
| 2026-04-25 12:07 | 42.17203 | -4.22673 | 37193 ft | 439 kts | 185° |
| 2026-04-25 12:07 | 42.11121 | -4.23323 | 37192 ft | 438 kts | 185° |
| 2026-04-25 12:08 | 42.05041 | -4.23973 | 37175 ft | 438 kts | 185° |
| 2026-04-25 12:08 | 41.98955 | -4.24621 | 37179 ft | 440 kts | 185° |
| 2026-04-25 12:09 | 41.92889 | -4.25264 | 37186 ft | 441 kts | 185° |
| 2026-04-25 12:09 | 41.86753 | -4.25912 | 37177 ft | 442 kts | 185° |
| 2026-04-25 12:10 | 41.80615 | -4.26565 | 37182 ft | 443 kts | 185° |
| 2026-04-25 12:10 | 41.74470 | -4.27214 | 37176 ft | 443 kts | 185° |
| 2026-04-25 12:11 | 41.68311 | -4.27869 | 37173 ft | 444 kts | 185° |
| 2026-04-25 12:11 | 41.62185 | -4.28507 | 37173 ft | 445 kts | 185° |
| 2026-04-25 12:12 | 41.57054 | -4.29046 | 37169 ft | 445 kts | 185° |
| 2026-04-25 12:12 | 41.49837 | -4.29808 | 37172 ft | 445 kts | 185° |
| 2026-04-25 12:13 | 41.43650 | -4.30455 | 37168 ft | 446 kts | 185° |
| 2026-04-25 12:13 | 41.37509 | -4.31098 | 37171 ft | 446 kts | 185° |
| 2026-04-25 12:14 | 41.31307 | -4.31742 | 37164 ft | 447 kts | 185° |
| 2026-04-25 12:14 | 41.25104 | -4.32389 | 37161 ft | 447 kts | 185° |
| 2026-04-25 12:15 | 41.18899 | -4.33034 | 37161 ft | 448 kts | 184° |
| 2026-04-25 12:15 | 41.12689 | -4.33680 | 37160 ft | 447 kts | 184° |
| 2026-04-25 12:16 | 41.06528 | -4.34317 | 37161 ft | 448 kts | 184° |
| 2026-04-25 12:16 | 41.00312 | -4.34958 | 37156 ft | 448 kts | 184° |
| 2026-04-25 12:17 | 40.94102 | -4.35599 | 37152 ft | 447 kts | 184° |
| 2026-04-25 12:17 | 40.87880 | -4.36239 | 37151 ft | 449 kts | 184° |
| 2026-04-25 12:18 | 40.81653 | -4.36881 | 37151 ft | 449 kts | 184° |
| 2026-04-25 12:18 | 40.75466 | -4.37515 | 37150 ft | 449 kts | 184° |
| 2026-04-25 12:19 | 40.66117 | -4.38472 | 37149 ft | 450 kts | 184° |
| 2026-04-25 12:20 | 40.59880 | -4.39107 | 37139 ft | 450 kts | 184° |
| 2026-04-25 12:20 | 40.53638 | -4.39741 | 37130 ft | 450 kts | 184° |
| 2026-04-25 12:21 | 40.47441 | -4.40376 | 37131 ft | 449 kts | 184° |
| 2026-04-25 12:21 | 40.41202 | -4.41010 | 37131 ft | 450 kts | 184° |
| 2026-04-25 12:22 | 40.34964 | -4.41644 | 37129 ft | 450 kts | 184° |
| 2026-04-25 12:22 | 40.28715 | -4.42277 | 37117 ft | 450 kts | 184° |
| 2026-04-25 12:23 | 40.22511 | -4.42900 | 37117 ft | 451 kts | 183° |
| 2026-04-25 12:23 | 40.16255 | -4.43530 | 37119 ft | 451 kts | 184° |
| 2026-04-25 12:24 | 40.09995 | -4.44165 | 37120 ft | 451 kts | 183° |
| 2026-04-25 12:24 | 40.03736 | -4.44788 | 37121 ft | 451 kts | 183° |
| 2026-04-25 12:25 | 39.97515 | -4.45413 | 37120 ft | 451 kts | 183° |
| 2026-04-25 12:25 | 39.91246 | -4.46039 | 37119 ft | 452 kts | 183° |
| 2026-04-25 12:26 | 39.84974 | -4.46662 | 37117 ft | 452 kts | 183° |
| 2026-04-25 12:26 | 39.78692 | -4.47291 | 37117 ft | 452 kts | 183° |
| 2026-04-25 12:27 | 39.72417 | -4.47914 | 37113 ft | 452 kts | 183° |
| 2026-04-25 12:27 | 39.66186 | -4.48535 | 37115 ft | 452 kts | 184° |
| 2026-04-25 12:28 | 39.59905 | -4.49159 | 37111 ft | 453 kts | 184° |
| 2026-04-25 12:28 | 39.53614 | -4.49780 | 37110 ft | 453 kts | 184° |
| 2026-04-25 12:29 | 39.47325 | -4.50402 | 37110 ft | 454 kts | 183° |
| 2026-04-25 12:29 | 39.41064 | -4.51016 | 37102 ft | 454 kts | 184° |
| 2026-04-25 12:30 | 39.35779 | -4.51538 | 37112 ft | 455 kts | 184° |
| 2026-04-25 12:30 | 39.28442 | -4.52258 | 37107 ft | 455 kts | 184° |
| 2026-04-25 12:31 | 39.22121 | -4.52880 | 37108 ft | 456 kts | 184° |
| 2026-04-25 12:31 | 39.15834 | -4.53499 | 37114 ft | 456 kts | 183° |
| 2026-04-25 12:32 | 39.09500 | -4.54117 | 37106 ft | 457 kts | 184° |
| 2026-04-25 12:32 | 39.03158 | -4.54733 | 37104 ft | 457 kts | 184° |
| 2026-04-25 12:33 | 38.96809 | -4.55349 | 37107 ft | 458 kts | 184° |
| 2026-04-25 12:33 | 38.90519 | -4.56314 | 37104 ft | 459 kts | 188° |
| 2026-04-25 12:34 | 38.84222 | -4.57649 | 37091 ft | 459 kts | 188° |
| 2026-04-25 12:34 | 38.77911 | -4.58978 | 37098 ft | 460 kts | 188° |
| 2026-04-25 12:35 | 38.71603 | -4.60291 | 37095 ft | 460 kts | 188° |
| 2026-04-25 12:35 | 38.65284 | -4.61601 | 37093 ft | 460 kts | 188° |
| 2026-04-25 12:36 | 38.59024 | -4.62894 | 37029 ft | 452 kts | 188° |
| 2026-04-25 12:36 | 38.55945 | -4.63532 | 36447 ft | 449 kts | 188° |
| 2026-04-25 12:36 | 38.52838 | -4.64173 | 35456 ft | 455 kts | 188° |
| 2026-04-25 12:36 | 38.49713 | -4.64819 | 34675 ft | 455 kts | 188° |
| 2026-04-25 12:37 | 38.46597 | -4.65465 | 34062 ft | 452 kts | 187° |
| 2026-04-25 12:37 | 38.43511 | -4.66101 | 33543 ft | 446 kts | 187° |
| 2026-04-25 12:37 | 38.40472 | -4.66727 | 32996 ft | 441 kts | 187° |
| 2026-04-25 12:37 | 38.37455 | -4.67349 | 32452 ft | 437 kts | 187° |
| 2026-04-25 12:38 | 38.34502 | -4.67958 | 31902 ft | 434 kts | 187° |
| 2026-04-25 12:38 | 38.31539 | -4.68570 | 31355 ft | 430 kts | 187° |
| 2026-04-25 12:38 | 38.28594 | -4.69175 | 30832 ft | 426 kts | 187° |
| 2026-04-25 12:38 | 38.25685 | -4.69769 | 30325 ft | 421 kts | 187° |
| 2026-04-25 12:39 | 38.22806 | -4.70361 | 29816 ft | 417 kts | 186° |
| 2026-04-25 12:39 | 38.19959 | -4.70940 | 29306 ft | 412 kts | 186° |
| 2026-04-25 12:39 | 38.17144 | -4.71513 | 28802 ft | 408 kts | 186° |
| 2026-04-25 12:39 | 38.14349 | -4.72087 | 28303 ft | 405 kts | 187° |
| 2026-04-25 12:40 | 38.11579 | -4.72656 | 27832 ft | 400 kts | 187° |
| 2026-04-25 12:40 | 38.08882 | -4.73208 | 27359 ft | 396 kts | 187° |
| 2026-04-25 12:40 | 38.06175 | -4.73757 | 26866 ft | 393 kts | 187° |
| 2026-04-25 12:40 | 38.03483 | -4.74303 | 26377 ft | 389 kts | 187° |
| 2026-04-25 12:41 | 38.00829 | -4.74841 | 25910 ft | 385 kts | 187° |
| 2026-04-25 12:41 | 37.98189 | -4.75377 | 25441 ft | 382 kts | 187° |
| 2026-04-25 12:41 | 37.95581 | -4.75907 | 24988 ft | 378 kts | 187° |
| 2026-04-25 12:41 | 37.92997 | -4.76432 | 24527 ft | 374 kts | 187° |
| 2026-04-25 12:42 | 37.90434 | -4.76953 | 24058 ft | 371 kts | 187° |
| 2026-04-25 12:42 | 37.89609 | -4.77121 | 23908 ft | 371 kts | 187° |
| 2026-04-25 12:42 | 37.85376 | -4.77978 | 23155 ft | 370 kts | 187° |
| 2026-04-25 12:42 | 37.82846 | -4.78490 | 22724 ft | 368 kts | 187° |
| 2026-04-25 12:43 | 37.80322 | -4.78999 | 22265 ft | 367 kts | 187° |
| 2026-04-25 12:43 | 37.77811 | -4.79605 | 21777 ft | 368 kts | 196° |
| 2026-04-25 12:43 | 37.73724 | -4.83331 | 20535 ft | 374 kts | 233° |
| 2026-04-25 12:44 | 37.72257 | -4.86076 | 19854 ft | 377 kts | 237° |
| 2026-04-25 12:44 | 37.70823 | -4.88842 | 19353 ft | 375 kts | 236° |
| 2026-04-25 12:44 | 37.68180 | -4.93671 | 18445 ft | 371 kts | 234° |
| 2026-04-25 12:45 | 37.66692 | -4.96310 | 17966 ft | 368 kts | 234° |
| 2026-04-25 12:45 | 37.65202 | -4.98924 | 17493 ft | 365 kts | 234° |
| 2026-04-25 12:45 | 37.61951 | -5.03719 | 16580 ft | 356 kts | 213° |
| 2026-04-25 12:46 | 37.59846 | -5.05271 | 16388 ft | 345 kts | 208° |
| 2026-04-25 12:46 | 37.57764 | -5.06686 | 16209 ft | 334 kts | 207° |
| 2026-04-25 12:46 | 37.55769 | -5.08049 | 15869 ft | 330 kts | 208° |
| 2026-04-25 12:46 | 37.53756 | -5.09444 | 15417 ft | 329 kts | 208° |
| 2026-04-25 12:47 | 37.51728 | -5.10756 | 14969 ft | 327 kts | 199° |
| 2026-04-25 12:47 | 37.49524 | -5.11291 | 14575 ft | 321 kts | 180° |
| 2026-04-25 12:47 | 37.47301 | -5.11270 | 14139 ft | 319 kts | 177° |
| 2026-04-25 12:47 | 37.45084 | -5.11185 | 13742 ft | 317 kts | 177° |
| 2026-04-25 12:48 | 37.42891 | -5.11116 | 13371 ft | 314 kts | 177° |
| 2026-04-25 12:48 | 37.40714 | -5.11063 | 12964 ft | 312 kts | 177° |
| 2026-04-25 12:48 | 37.38576 | -5.10953 | 12566 ft | 310 kts | 171° |
| 2026-04-25 12:48 | 37.36559 | -5.10154 | 12179 ft | 303 kts | 151° |
| 2026-04-25 12:49 | 37.34749 | -5.08830 | 11797 ft | 300 kts | 147° |
| 2026-04-25 12:49 | 37.32976 | -5.07450 | 11423 ft | 298 kts | 147° |
| 2026-04-25 12:49 | 37.31219 | -5.06104 | 11064 ft | 295 kts | 147° |
| 2026-04-25 12:49 | 37.29470 | -5.04781 | 10712 ft | 293 kts | 147° |
| 2026-04-25 12:50 | 37.27718 | -5.03467 | 10378 ft | 293 kts | 149° |
| 2026-04-25 12:50 | 37.25839 | -5.02485 | 10045 ft | 294 kts | 168° |
| 2026-04-25 12:50 | 37.23800 | -5.02288 | 9733 ft | 294 kts | 178° |
| 2026-04-25 12:50 | 37.21781 | -5.02299 | 9409 ft | 294 kts | 179° |
| 2026-04-25 12:51 | 37.19732 | -5.02314 | 9070 ft | 295 kts | 179° |
| 2026-04-25 12:51 | 37.17683 | -5.02312 | 8731 ft | 294 kts | 178° |
| 2026-04-25 12:51 | 37.15653 | -5.02298 | 8393 ft | 291 kts | 178° |
| 2026-04-25 12:51 | 37.13638 | -5.02277 | 8064 ft | 287 kts | 178° |
| 2026-04-25 12:52 | 37.11646 | -5.02253 | 7935 ft | 286 kts | 178° |
| 2026-04-25 12:52 | 37.09656 | -5.02227 | 7933 ft | 286 kts | 178° |
| 2026-04-25 12:52 | 37.07666 | -5.02200 | 7944 ft | 286 kts | 178° |
| 2026-04-25 12:52 | 37.05682 | -5.02173 | 7929 ft | 282 kts | 178° |
| 2026-04-25 12:53 | 37.03736 | -5.02146 | 7513 ft | 283 kts | 178° |
| 2026-04-25 12:53 | 37.01796 | -5.02120 | 7327 ft | 274 kts | 178° |
| 2026-04-25 12:53 | 36.99928 | -5.02095 | 7174 ft | 265 kts | 178° |
| 2026-04-25 12:53 | 36.98121 | -5.02070 | 6988 ft | 254 kts | 178° |
| 2026-04-25 12:54 | 36.96383 | -5.02039 | 6929 ft | 248 kts | 175° |
| 2026-04-25 12:54 | 36.94737 | -5.01608 | 6924 ft | 243 kts | 151° |
| 2026-04-25 12:54 | 36.93461 | -5.00282 | 6949 ft | 239 kts | 121° |
| 2026-04-25 12:54 | 36.92881 | -4.98364 | 6957 ft | 237 kts | 95° |
| 2026-04-25 12:55 | 36.92873 | -4.96305 | 6970 ft | 237 kts | 86° |
| 2026-04-25 12:55 | 36.92901 | -4.95642 | 6972 ft | 237 kts | 86° |
| 2026-04-25 12:55 | 36.93448 | -4.92282 | 6966 ft | 238 kts | 59° |
| 2026-04-25 12:55 | 36.94571 | -4.90792 | 6968 ft | 240 kts | 32° |
| 2026-04-25 12:56 | 36.96129 | -4.90138 | 6978 ft | 243 kts | 6° |
| 2026-04-25 12:56 | 36.97821 | -4.90145 | 6985 ft | 244 kts | 359° |
| 2026-04-25 12:56 | 36.99519 | -4.90247 | 6977 ft | 244 kts | 359° |
| 2026-04-25 12:56 | 37.01211 | -4.90330 | 6972 ft | 244 kts | 360° |
| 2026-04-25 12:57 | 37.02909 | -4.90400 | 6969 ft | 244 kts | 0° |
| 2026-04-25 12:57 | 37.04608 | -4.90452 | 6972 ft | 244 kts | 0° |
| 2026-04-25 12:57 | 37.06303 | -4.90493 | 6967 ft | 244 kts | 1° |
| 2026-04-25 12:57 | 37.08000 | -4.90526 | 6963 ft | 243 kts | 1° |
| 2026-04-25 12:58 | 37.09644 | -4.90554 | 6960 ft | 233 kts | 1° |
| 2026-04-25 12:58 | 37.11264 | -4.90576 | 7026 ft | 233 kts | 1° |
| 2026-04-25 12:58 | 37.12889 | -4.90599 | 6992 ft | 233 kts | 1° |
| 2026-04-25 12:58 | 37.14487 | -4.90620 | 6979 ft | 233 kts | 1° |
| 2026-04-25 12:59 | 37.16106 | -4.90642 | 6966 ft | 233 kts | 1° |
| 2026-04-25 12:59 | 37.17713 | -4.90497 | 6955 ft | 231 kts | 16° |
| 2026-04-25 12:59 | 37.19060 | -4.89480 | 6946 ft | 228 kts | 47° |
| 2026-04-25 12:59 | 37.19801 | -4.87752 | 6955 ft | 227 kts | 77° |
| 2026-04-25 13:00 | 37.19897 | -4.85776 | 6972 ft | 228 kts | 90° |
| 2026-04-25 13:00 | 37.19892 | -4.85108 | 6975 ft | 227 kts | 90° |
| 2026-04-25 13:00 | 37.19408 | -4.81909 | 6958 ft | 230 kts | 120° |
| 2026-04-25 13:00 | 37.18287 | -4.80504 | 6943 ft | 233 kts | 150° |
| 2026-04-25 13:01 | 37.16702 | -4.80071 | 6966 ft | 237 kts | 176° |
| 2026-04-25 13:01 | 37.15057 | -4.80101 | 6981 ft | 237 kts | 179° |
| 2026-04-25 13:01 | 37.13435 | -4.80127 | 6978 ft | 237 kts | 179° |
| 2026-04-25 13:01 | 37.11789 | -4.80136 | 6976 ft | 236 kts | 178° |
| 2026-04-25 13:02 | 37.10143 | -4.80137 | 6980 ft | 236 kts | 178° |
| 2026-04-25 13:02 | 37.08498 | -4.80130 | 6981 ft | 236 kts | 178° |
| 2026-04-25 13:02 | 37.06857 | -4.80114 | 6980 ft | 236 kts | 177° |
| 2026-04-25 13:02 | 37.05213 | -4.80089 | 6981 ft | 236 kts | 177° |
| 2026-04-25 13:03 | 37.03567 | -4.80063 | 6981 ft | 236 kts | 177° |
| 2026-04-25 13:03 | 37.01923 | -4.80037 | 6982 ft | 236 kts | 177° |
| 2026-04-25 13:03 | 37.00277 | -4.80013 | 6982 ft | 236 kts | 177° |
| 2026-04-25 13:03 | 36.98683 | -4.79991 | 6808 ft | 230 kts | 177° |
| 2026-04-25 13:04 | 36.97076 | -4.79972 | 6391 ft | 233 kts | 178° |
| 2026-04-25 13:04 | 36.95455 | -4.79955 | 6092 ft | 233 kts | 178° |
| 2026-04-25 13:04 | 36.93842 | -4.79930 | 5959 ft | 232 kts | 176° |
| 2026-04-25 13:04 | 36.92268 | -4.79547 | 5824 ft | 229 kts | 160° |
| 2026-04-25 13:05 | 36.90782 | -4.78883 | 5419 ft | 226 kts | 158° |
| 2026-04-25 13:05 | 36.89299 | -4.78226 | 5133 ft | 224 kts | 158° |
| 2026-04-25 13:05 | 36.87863 | -4.77597 | 4974 ft | 213 kts | 158° |
| 2026-04-25 13:05 | 36.86552 | -4.76935 | 4937 ft | 193 kts | 151° |
| 2026-04-25 13:06 | 36.85406 | -4.76152 | 4661 ft | 191 kts | 150° |
| 2026-04-25 13:06 | 36.84226 | -4.75359 | 4487 ft | 193 kts | 150° |
| 2026-04-25 13:06 | 36.83055 | -4.74562 | 4467 ft | 190 kts | 149° |
| 2026-04-25 13:06 | 36.81892 | -4.73784 | 4360 ft | 189 kts | 149° |
| 2026-04-25 13:07 | 36.80740 | -4.73007 | 4065 ft | 188 kts | 148° |
| 2026-04-25 13:07 | 36.79613 | -4.72245 | 3866 ft | 180 kts | 149° |
| 2026-04-25 13:07 | 36.78541 | -4.71525 | 3729 ft | 170 kts | 148° |
| 2026-04-25 13:07 | 36.77869 | -4.71051 | 3567 ft | 165 kts | 144° |
| 2026-04-25 13:08 | 36.77102 | -4.70056 | 3231 ft | 160 kts | 119° |
| 2026-04-25 13:08 | 36.76469 | -4.68408 | 3113 ft | 159 kts | 115° |
| 2026-04-25 13:08 | 36.75971 | -4.67183 | 2928 ft | 159 kts | 116° |
| 2026-04-25 13:08 | 36.75462 | -4.65961 | 2734 ft | 159 kts | 116° |
| 2026-04-25 13:09 | 36.75125 | -4.65152 | 2579 ft | 159 kts | 117° |
| 2026-04-25 13:09 | 36.74616 | -4.63935 | 2385 ft | 157 kts | 117° |
| 2026-04-25 13:09 | 36.74140 | -4.62797 | 2191 ft | 139 kts | 117° |
| 2026-04-25 13:09 | 36.73697 | -4.61741 | 1993 ft | 137 kts | 118° |
| 2026-04-25 13:10 | 36.73256 | -4.60688 | 1809 ft | 137 kts | 118° |
| 2026-04-25 13:10 | 36.72673 | -4.59295 | 1567 ft | 137 kts | 118° |
| 2026-04-25 13:10 | 36.72233 | -4.58246 | 1386 ft | 137 kts | 119° |
| 2026-04-25 13:10 | 36.71790 | -4.57192 | 1213 ft | 137 kts | 120° |
| 2026-04-25 13:11 | 36.71499 | -4.56494 | 1090 ft | 137 kts | 119° |
| 2026-04-25 13:11 | 36.71062 | -4.55446 | 907 ft | 136 kts | 119° |
| 2026-04-25 13:11 | 36.70627 | -4.54393 | 730 ft | 137 kts | 118° |
| 2026-04-25 13:11 | 36.70199 | -4.53335 | 573 ft | 137 kts | 118° |
| 2026-04-25 13:12 | 36.69753 | -4.52291 | 382 ft | 135 kts | 120° |
| 2026-04-25 13:12 | 36.69307 | -4.51262 | 195 ft | 137 kts | 119° |
| 2026-04-25 13:12 | 36.68861 | -4.50214 | 51 ft | 134 kts | 118° |
| 2026-04-25 13:12 | 36.68629 | -4.49625 | 52 ft | 89 kts | 116° |
| 2026-04-25 13:13 | 36.68408 | -4.49119 | 56 ft | 33 kts | 120° |
| 2026-04-25 13:13 | 36.68259 | -4.48915 | 54 ft | 22 kts | 147° |
| 2026-04-25 13:13 | 36.68205 | -4.48872 | 55 ft | 4 kts | 148° |
| 2026-04-25 13:14 | 36.68184 | -4.48858 | 54 ft | 6 kts | 153° |
| 2026-04-25 13:14 | 36.68140 | -4.48870 | 54 ft | 10 kts | 240° |
| 2026-04-25 13:15 | 36.68151 | -4.48960 | 53 ft | 12 kts | 300° |
| 2026-04-25 13:15 | 36.68194 | -4.49053 | 54 ft | 13 kts | 297° |
| 2026-04-25 13:15 | 36.68237 | -4.49158 | 54 ft | 14 kts | 297° |
| 2026-04-25 13:15 | 36.68283 | -4.49268 | 54 ft | 14 kts | 289° |
| 2026-04-25 13:16 | 36.68237 | -4.49369 | 52 ft | 15 kts | 221° |
| 2026-04-25 13:16 | 36.68156 | -4.49457 | 53 ft | 16 kts | 221° |
| 2026-04-25 13:16 | 36.68084 | -4.49536 | 52 ft | 14 kts | 221° |
| 2026-04-25 13:16 | 36.68018 | -4.49609 | 52 ft | 10 kts | 221° |
| 2026-04-25 13:17 | 36.67960 | -4.49673 | 52 ft | 12 kts | 221° |
| 2026-04-25 13:17 | 36.67894 | -4.49745 | 52 ft | 13 kts | 221° |
| 2026-04-25 13:17 | 36.67856 | -4.49788 | 52 ft | 7 kts | 221° |
| 2026-04-25 13:17 | 36.67852 | -4.49792 | 54 ft | 0 kts | 221° |
| 2026-04-25 13:18 | 36.67847 | -4.49797 | 52 ft | 4 kts | 221° |
| 2026-04-25 13:18 | 36.67808 | -4.49802 | 54 ft | 11 kts | 150° |
| 2026-04-25 13:19 | 36.67748 | -4.49725 | 50 ft | 13 kts | 132° |
| 2026-04-25 13:19 | 36.67697 | -4.49654 | 54 ft | 0 kts | 132° |
| 2026-04-25 13:19 | 36.67697 | -4.49655 | 53 ft | 0 kts | 132° |
| 2026-04-25 13:19 | 36.67698 | -4.49655 | 54 ft | 0 kts | 132° |
| 2026-04-25 13:20 | 36.67698 | -4.49656 | 54 ft | 0 kts | 132° |
| 2026-04-25 13:20 | 36.67689 | -4.49643 | 54 ft | 4 kts | 131° |
| 2026-04-25 13:20 | 36.67664 | -4.49608 | 54 ft | 6 kts | 131° |
| 2026-04-25 13:21 | 36.67632 | -4.49564 | 52 ft | 8 kts | 131° |
| 2026-04-25 13:21 | 36.67593 | -4.49510 | 54 ft | 9 kts | 131° |
| 2026-04-25 13:21 | 36.67548 | -4.49455 | 51 ft | 8 kts | 125° |
| 2026-04-25 13:21 | 36.67531 | -4.49415 | 54 ft | 2 kts | 115° |
| 2026-04-25 13:22 | 36.67524 | -4.49396 | 54 ft | 3 kts | 115° |
| 2026-04-25 13:22 | 36.67519 | -4.49383 | 54 ft | 1 kts | 115° |
| 2026-04-25 13:22 | 36.67515 | -4.49373 | 54 ft | 2 kts | 115° |
| 2026-04-25 13:23 | 36.67513 | -4.49367 | 54 ft | 0 kts | 115° |